Time;durP1;ratioP1;P1;durP2;ratioP2;P2;SDS_P1;SDS_P2;PMS_P1;PMS_P2;Temp;Humidity;BMP_temperature;BMP_pressure;BME280_temperature;BME280_humidity;BME280_pressure;Samples;Min_cycle;Max_cycle;Signal;HPM_P1;HPM_P2
2022/07/28 00:01:17;;;;;;;5.25;1.60;;;10.90;99.90;;;;;;5089786;28;20067;-85
2022/07/28 00:03:44;;;;;;;4.38;1.83;;;10.90;99.90;;;;;;5084591;28;20078;-86
2022/07/28 00:06:11;;;;;;;4.68;2.00;;;11.00;99.90;;;;;;5064596;27;20043;-85
2022/07/28 00:08:37;;;;;;;5.07;1.95;;;10.90;99.90;;;;;;5095978;27;20471;-85
2022/07/28 00:11:03;;;;;;;3.78;1.90;;;10.90;99.90;;;;;;5097897;27;20043;-85
2022/07/28 00:13:30;;;;;;;3.85;1.60;;;10.90;99.90;;;;;;5078388;27;20043;-86
2022/07/28 00:15:56;;;;;;;4.75;2.00;;;10.90;99.90;;;;;;5059497;27;20047;-86
2022/07/28 00:18:22;;;;;;;3.47;1.90;;;10.90;99.90;;;;;;5069491;28;20056;-86
2022/07/28 00:20:48;;;;;;;4.28;1.85;;;10.90;99.90;;;;;;5083239;28;20043;-86
2022/07/28 00:23:14;;;;;;;5.28;2.08;;;10.90;99.90;;;;;;5067888;28;20046;-85
2022/07/28 00:25:41;;;;;;;3.58;2.00;;;10.80;99.90;;;;;;5048542;28;20040;-85
2022/07/28 00:28:07;;;;;;;6.07;2.17;;;10.80;99.90;;;;;;5062773;28;20035;-86
2022/07/28 00:30:33;;;;;;;4.78;2.33;;;10.80;99.90;;;;;;5055930;28;20044;-85
2022/07/28 00:32:59;;;;;;;2.65;1.80;;;10.70;99.90;;;;;;5084760;28;20115;-86
2022/07/28 00:35:26;;;;;;;7.05;2.20;;;10.70;99.90;;;;;;5039303;28;20055;-86
2022/07/28 00:37:52;;;;;;;5.22;1.90;;;10.70;99.90;;;;;;5070283;28;20113;-85
2022/07/28 00:40:18;;;;;;;4.93;2.00;;;10.70;99.90;;;;;;5046634;28;20123;-85
2022/07/28 00:42:44;;;;;;;6.88;2.08;;;10.70;99.90;;;;;;5080260;28;20047;-85
2022/07/28 00:45:11;;;;;;;5.25;2.20;;;10.70;99.90;;;;;;5049746;28;20526;-85
2022/07/28 00:47:37;;;;;;;4.28;2.10;;;10.70;99.90;;;;;;5063774;28;20055;-85
2022/07/28 00:50:04;;;;;;;5.97;2.30;;;10.60;99.90;;;;;;5013996;28;20069;-85
2022/07/28 00:52:31;;;;;;;7.68;2.60;;;10.60;99.90;;;;;;5031111;28;20035;-86
2022/07/28 00:54:58;;;;;;;5.32;2.15;;;10.50;99.90;;;;;;5028577;28;20811;-86
2022/07/28 00:57:24;;;;;;;5.82;2.38;;;10.50;99.90;;;;;;5049090;28;20675;-87
2022/07/28 00:59:50;;;;;;;3.42;1.88;;;10.50;99.90;;;;;;5062668;28;20048;-86
2022/07/28 01:02:16;;;;;;;3.33;2.15;;;10.50;99.90;;;;;;5048508;28;20139;-85
2022/07/28 01:04:43;;;;;;;5.07;2.20;;;10.50;99.90;;;;;;5067158;28;20044;-85
2022/07/28 01:07:31;;;;;;;4.28;1.90;;;10.50;99.90;;;;;;5058037;28;20578;-85
2022/07/28 01:10:11;;;;;;;4.40;2.05;;;10.60;99.90;;;;;;5082313;28;20052;-85
2022/07/28 01:12:49;;;;;;;5.80;2.15;;;10.60;99.90;;;;;;5048575;28;20047;-86
2022/07/28 01:15:28;;;;;;;5.10;2.15;;;10.60;99.90;;;;;;5093048;27;20105;-86
2022/07/28 01:18:04;;;;;;;3.67;2.10;;;10.50;99.90;;;;;;5049695;27;20047;-85
2022/07/28 01:20:51;;;;;;;4.05;2.40;;;10.50;99.90;;;;;;5086457;27;20545;-85
2022/07/28 01:23:20;;;;;;;4.65;2.35;;;10.50;99.90;;;;;;5066860;27;20068;-86
2022/07/28 01:25:50;;;;;;;3.35;2.20;;;10.50;99.90;;;;;;5092632;27;20035;-86
2022/07/28 01:28:31;;;;;;;3.35;2.22;;;10.50;99.90;;;;;;5122267;27;20058;-86
2022/07/28 01:31:04;;;;;;;4.50;2.30;;;10.50;99.90;;;;;;5091220;27;20078;-84
2022/07/28 01:33:35;;;;;;;4.13;1.83;;;10.40;99.90;;;;;;5072187;27;20051;-85
2022/07/28 01:36:08;;;;;;;4.57;2.17;;;10.50;99.90;;;;;;5096842;27;20046;-85
2022/07/28 01:38:35;;;;;;;3.78;2.40;;;10.50;99.90;;;;;;5090196;27;20053;-85
2022/07/28 01:41:04;;;;;;;4.38;2.25;;;10.40;99.90;;;;;;5101171;27;20049;-85
2022/07/28 01:43:35;;;;;;;3.10;2.20;;;10.40;99.90;;;;;;5066329;27;20035;-83
2022/07/28 01:46:03;;;;;;;3.63;2.20;;;10.40;99.90;;;;;;5072121;27;20043;-85
2022/07/28 01:48:32;;;;;;;3.05;2.08;;;10.40;99.90;;;;;;5104239;27;20035;-85
2022/07/28 01:50:59;;;;;;;4.57;2.58;;;10.40;99.90;;;;;;5070676;27;20038;-85
2022/07/28 01:53:29;;;;;;;4.30;2.03;;;10.40;99.90;;;;;;5094008;27;20046;-84
2022/07/28 01:55:58;;;;;;;6.22;2.50;;;10.40;99.90;;;;;;5084326;27;20039;-84
2022/07/28 01:58:27;;;;;;;6.22;2.67;;;10.30;99.90;;;;;;5081244;27;20243;-85
2022/07/28 02:00:54;;;;;;;4.22;2.13;;;10.30;99.90;;;;;;5104594;27;20139;-85
2022/07/28 02:03:22;;;;;;;3.30;2.03;;;10.30;99.90;;;;;;5070428;27;20470;-85
2022/07/28 02:05:51;;;;;;;5.18;2.47;;;10.40;99.90;;;;;;5054393;27;20118;-85
2022/07/28 02:08:20;;;;;;;3.75;1.90;;;10.40;99.90;;;;;;5069771;27;20070;-85
2022/07/28 02:13:35;;;;;;;4.10;2.38;;;10.30;99.90;;;;;;5091232;27;20069;-85
2022/07/28 02:16:04;;;;;;;3.60;2.08;;;10.40;99.90;;;;;;5053844;27;20057;-85
2022/07/28 02:18:32;;;;;;;4.32;1.95;;;10.40;99.90;;;;;;5071047;27;20067;-85
2022/07/28 02:21:02;;;;;;;4.85;2.38;;;10.40;99.90;;;;;;5071440;27;20585;-85
2022/07/28 02:23:28;;;;;;;4.15;2.20;;;10.40;99.90;;;;;;5041331;27;20095;-85
2022/07/28 02:25:57;;;;;;;5.07;2.25;;;10.40;99.90;;;;;;5085680;27;20046;-84
2022/07/28 02:28:26;;;;;;;5.47;2.22;;;10.50;99.90;;;;;;5066957;27;20081;-85
2022/07/28 02:31:18;;;;;;;5.65;2.33;;;10.50;99.90;;;;;;5081876;27;20111;-85
2022/07/28 02:33:46;;;;;;;5.15;2.78;;;10.50;99.90;;;;;;5086673;27;20204;-85
2022/07/28 02:36:29;;;;;;;3.85;2.05;;;10.50;99.90;;;;;;5080321;27;20058;-84
2022/07/28 02:39:00;;;;;;;4.38;1.90;;;10.40;99.90;;;;;;5084510;27;20082;-85
2022/07/28 02:41:31;;;;;;;5.18;2.30;;;10.40;99.90;;;;;;5076694;27;20038;-84
2022/07/28 02:44:03;;;;;;;3.50;2.17;;;10.40;99.90;;;;;;5076047;27;20082;-85
2022/07/28 02:46:33;;;;;;;;;;;10.40;99.90;;;;;;5091537;27;20470;-85
2022/07/28 02:49:05;;;;;;;4.07;1.98;;;10.40;99.90;;;;;;5099571;27;19922;-84
2022/07/28 02:51:33;;;;;;;4.65;2.20;;;10.30;99.90;;;;;;5089439;27;20049;-84
2022/07/28 02:54:00;;;;;;;4.90;2.50;;;10.40;99.90;;;;;;5070183;27;20563;-84
2022/07/28 02:56:29;;;;;;;5.82;2.63;;;10.30;99.90;;;;;;5090294;27;20511;-84
2022/07/28 02:58:56;;;;;;;5.95;2.00;;;10.30;99.90;;;;;;5069413;27;20047;-84
2022/07/28 03:01:24;;;;;;;3.58;2.00;;;10.20;99.90;;;;;;5100792;28;20126;-85
2022/07/28 03:03:50;;;;;;;3.97;2.28;;;10.20;99.90;;;;;;5090497;28;20076;-84
2022/07/28 03:06:18;;;;;;;4.10;2.10;;;10.20;99.90;;;;;;5051713;27;20118;-84
2022/07/28 03:08:44;;;;;;;3.83;1.92;;;10.20;99.90;;;;;;5040513;27;20069;-83
2022/07/28 03:11:12;;;;;;;6.35;2.53;;;10.20;99.90;;;;;;5077694;27;20368;-84
2022/07/28 03:13:39;;;;;;;4.78;2.42;;;10.20;99.90;;;;;;5068392;27;20163;-84
2022/07/28 03:16:06;;;;;;;3.78;1.90;;;10.10;99.90;;;;;;5063087;27;20039;-85
2022/07/28 03:18:33;;;;;;;4.13;2.15;;;10.10;99.90;;;;;;5069251;27;20085;-84
2022/07/28 03:21:00;;;;;;;5.90;2.47;;;10.10;99.90;;;;;;5079175;27;20055;-84
2022/07/28 03:23:39;;;;;;;4.43;2.55;;;10.10;99.90;;;;;;5107522;27;20142;-84
2022/07/28 03:26:12;;;;;;;6.50;2.40;;;10.10;99.90;;;;;;5083161;28;20074;-85
2022/07/28 03:28:40;;;;;;;5.68;2.90;;;10.00;99.90;;;;;;5068084;27;20050;-84
2022/07/28 03:31:09;;;;;;;6.90;2.88;;;10.10;99.90;;;;;;5057684;28;20073;-85
2022/07/28 03:33:37;;;;;;;6.30;3.10;;;10.00;99.90;;;;;;5095310;27;20039;-84
2022/07/28 03:36:08;;;;;;;5.38;2.90;;;10.10;99.90;;;;;;5077656;27;20059;-83
2022/07/28 03:39:02;;;;;;;5.28;2.60;;;10.00;99.90;;;;;;5089806;28;20039;-83
2022/07/28 03:41:30;;;;;;;8.07;3.25;;;10.00;99.90;;;;;;5095086;27;20074;-85
2022/07/28 03:43:58;;;;;;;5.03;3.08;;;10.00;99.90;;;;;;5093908;27;20488;-84
2022/07/28 03:46:25;;;;;;;4.80;2.63;;;10.00;99.90;;;;;;5082597;27;20076;-83
2022/07/28 03:48:51;;;;;;;4.88;2.83;;;10.00;99.90;;;;;;5079274;27;20039;-83
2022/07/28 03:51:17;;;;;;;6.75;3.70;;;10.00;99.90;;;;;;5035218;27;20865;-84
2022/07/28 03:53:44;;;;;;;5.63;2.88;;;10.00;99.90;;;;;;5108285;27;20054;-84
2022/07/28 03:56:10;;;;;;;5.95;2.88;;;10.00;99.90;;;;;;5090886;27;20047;-84
2022/07/28 03:58:37;;;;;;;5.20;2.40;;;10.00;99.90;;;;;;5056159;27;20051;-85
2022/07/28 04:01:03;;;;;;;4.20;2.42;;;10.00;99.90;;;;;;5073180;27;21155;-84
2022/07/28 04:03:29;;;;;;;3.17;2.30;;;9.90;99.90;;;;;;5057638;27;20130;-84
2022/07/28 04:05:56;;;;;;;2.88;2.17;;;9.80;99.90;;;;;;5092979;27;20391;-83
2022/07/28 04:08:23;;;;;;;4.28;2.50;;;9.80;99.90;;;;;;5070064;27;20460;-83
2022/07/28 04:10:49;;;;;;;4.32;2.30;;;9.80;99.90;;;;;;5072137;27;20054;-85
2022/07/28 04:13:15;;;;;;;3.90;2.45;;;9.80;99.90;;;;;;5056364;27;20042;-85
2022/07/28 04:15:41;;;;;;;3.10;2.20;;;9.80;99.90;;;;;;5089725;27;20043;-84
2022/07/28 04:18:07;;;;;;;5.05;2.53;;;9.80;99.90;;;;;;5065191;27;20046;-84
2022/07/28 04:20:34;;;;;;;4.47;2.47;;;9.70;99.90;;;;;;5055961;27;20239;-83
2022/07/28 04:23:00;;;;;;;4.07;2.35;;;9.70;99.90;;;;;;5089653;27;20499;-84
2022/07/28 04:25:26;;;;;;;4.03;2.28;;;9.70;99.90;;;;;;5067829;27;21694;-85
2022/07/28 04:27:53;;;;;;;4.43;2.40;;;9.80;99.90;;;;;;5089510;27;20061;-85
2022/07/28 04:30:26;;;;;;;6.95;2.47;;;9.70;99.90;;;;;;5091528;27;20160;-84
2022/07/28 04:32:55;;;;;;;3.83;2.10;;;9.70;99.90;;;;;;5110013;27;20668;-85
2022/07/28 04:35:26;;;;;;;3.90;2.50;;;9.70;99.90;;;;;;5122427;27;20050;-85
2022/07/28 04:37:57;;;;;;;7.18;2.60;;;9.80;99.90;;;;;;5072624;27;20379;-84
2022/07/28 04:40:24;;;;;;;5.03;2.70;;;9.80;99.90;;;;;;5053819;27;20083;-84
2022/07/28 04:42:50;;;;;;;3.42;2.50;;;9.90;99.90;;;;;;5092298;27;20050;-83
2022/07/28 04:45:16;;;;;;;3.72;2.55;;;9.90;99.90;;;;;;5066703;27;20127;-85
2022/07/28 04:47:42;;;;;;;5.03;2.58;;;10.00;99.90;;;;;;5093797;27;20049;-83
2022/07/28 04:50:10;;;;;;;4.05;2.88;;;10.00;99.90;;;;;;5072376;27;20042;-84
2022/07/28 04:52:37;;;;;;;5.13;2.72;;;10.00;99.90;;;;;;5086601;27;20047;-83
2022/07/28 04:55:04;;;;;;;4.97;2.55;;;10.10;99.90;;;;;;5047735;27;20055;-84
2022/07/28 04:57:31;;;;;;;4.50;2.75;;;10.10;99.90;;;;;;5055864;27;20049;-84
2022/07/28 04:59:58;;;;;;;4.57;2.53;;;10.10;99.90;;;;;;5087124;27;20099;-83
2022/07/28 05:02:25;;;;;;;3.72;2.45;;;10.10;99.90;;;;;;5090817;27;20047;-84
2022/07/28 05:04:51;;;;;;;4.95;2.33;;;10.10;99.90;;;;;;5101678;27;20045;-84
2022/07/28 05:07:18;;;;;;;5.13;2.20;;;10.20;99.90;;;;;;5065994;27;20055;-84
2022/07/28 05:09:44;;;;;;;5.22;2.80;;;10.20;99.90;;;;;;5066215;27;20042;-84
2022/07/28 05:12:11;;;;;;;5.72;2.67;;;10.30;99.90;;;;;;5064958;27;20152;-84
2022/07/28 05:14:37;;;;;;;3.60;2.25;;;10.60;99.90;;;;;;5094002;27;20869;-84
2022/07/28 05:17:03;;;;;;;5.25;2.35;;;10.90;99.90;;;;;;5064998;27;20045;-84
2022/07/28 05:19:30;;;;;;;4.95;2.55;;;11.40;99.90;;;;;;5087681;27;20079;-85
2022/07/28 05:21:56;;;;;;;3.70;2.00;;;11.80;99.90;;;;;;5099431;27;20114;-84
2022/07/28 05:24:22;;;;;;;6.07;2.50;;;12.10;99.90;;;;;;5053824;27;20050;-85
2022/07/28 05:26:48;;;;;;;3.53;1.92;;;12.40;99.90;;;;;;5077028;27;20539;-86
2022/07/28 05:29:17;;;;;;;4.95;1.90;;;12.80;99.90;;;;;;5054748;27;20102;-86
2022/07/28 05:31:43;;;;;;;4.18;2.00;;;13.10;99.90;;;;;;5034962;27;20039;-85
2022/07/28 05:34:12;;;;;;;4.18;1.73;;;13.40;99.90;;;;;;5050333;27;20768;-85
2022/07/28 05:36:39;;;;;;;5.60;1.88;;;13.80;99.90;;;;;;5089892;27;20445;-85
2022/07/28 05:39:05;;;;;;;5.10;1.83;;;13.90;99.90;;;;;;5086108;27;20042;-85
2022/07/28 05:41:31;;;;;;;3.95;1.80;;;14.20;99.90;;;;;;5088930;27;20061;-84
2022/07/28 05:43:59;;;;;;;3.67;2.00;;;14.40;99.90;;;;;;5083909;27;20176;-86
2022/07/28 05:46:27;;;;;;;3.45;1.50;;;14.60;99.90;;;;;;5089262;27;20038;-85
2022/07/28 05:48:53;;;;;;;5.20;1.67;;;14.70;99.90;;;;;;5104816;27;20498;-86
2022/07/28 05:51:19;;;;;;;6.63;1.60;;;15.10;99.90;;;;;;5088820;27;20151;-84
2022/07/28 05:53:45;;;;;;;3.80;1.20;;;15.20;99.90;;;;;;5073204;27;20518;-84
2022/07/28 05:56:11;;;;;;;3.42;1.30;;;15.50;99.90;;;;;;5074285;27;20034;-85
2022/07/28 05:58:37;;;;;;;5.75;1.30;;;15.60;99.90;;;;;;5052432;27;20054;-85
2022/07/28 06:01:03;;;;;;;4.93;1.38;;;15.80;99.90;;;;;;5070960;27;20043;-86
2022/07/28 06:03:31;;;;;;;6.00;1.52;;;16.20;99.90;;;;;;5073126;27;20046;-84
2022/07/28 06:05:57;;;;;;;5.25;1.15;;;16.00;99.90;;;;;;5074502;27;20077;-84
2022/07/28 06:08:24;;;;;;;3.00;1.23;;;16.30;99.90;;;;;;5073172;27;20054;-82
2022/07/28 06:10:57;;;;;;;5.28;1.50;;;16.40;99.90;;;;;;5053758;27;20506;-81
2022/07/28 06:13:24;;;;;;;2.78;1.33;;;16.90;99.90;;;;;;5085329;27;20108;-85
2022/07/28 06:15:51;;;;;;;5.13;1.88;;;16.80;99.90;;;;;;5057222;27;20046;-86
2022/07/28 06:18:18;;;;;;;4.40;1.48;;;17.00;99.90;;;;;;5084705;27;20063;-86
2022/07/28 06:20:46;;;;;;;4.82;1.33;;;17.00;99.90;;;;;;5064385;27;20138;-85
2022/07/28 06:23:14;;;;;;;2.72;1.23;;;17.40;99.90;;;;;;5088425;27;20035;-82
2022/07/28 06:25:41;;;;;;;5.18;1.20;;;17.60;99.90;;;;;;5050758;27;20039;-83
2022/07/28 06:28:07;;;;;;;6.75;1.33;;;17.90;99.90;;;;;;5091874;27;20039;-83
2022/07/28 06:30:37;;;;;;;6.75;3.22;;;18.20;99.90;;;;;;5071661;27;20046;-84
2022/07/28 06:33:04;;;;;;;2.40;1.20;;;18.30;99.90;;;;;;5059829;27;20125;-85
2022/07/28 06:35:31;;;;;;;3.75;1.30;;;18.60;99.90;;;;;;5094157;27;20139;-93
2022/07/28 06:37:58;;;;;;;4.50;1.05;;;19.00;99.90;;;;;;5085013;27;21176;-90
2022/07/28 06:40:24;;;;;;;9.02;1.33;;;19.20;99.90;;;;;;5049455;27;22357;-83
2022/07/28 06:42:51;;;;;;;3.42;0.80;;;19.00;99.90;;;;;;5071971;27;20043;-84
2022/07/28 06:45:18;;;;;;;5.25;0.90;;;19.10;99.90;;;;;;5066142;27;20502;-83
2022/07/28 06:47:44;;;;;;;3.13;0.88;;;19.00;99.90;;;;;;5086232;27;20398;-83
2022/07/28 06:50:10;;;;;;;7.32;1.35;;;18.80;99.90;;;;;;5073895;27;20041;-84
2022/07/28 06:52:37;;;;;;;3.28;0.73;;;18.70;99.90;;;;;;5069554;27;20046;-86
2022/07/28 06:55:05;;;;;;;3.88;0.98;;;18.80;99.90;;;;;;5101793;27;20118;-85
2022/07/28 06:57:32;;;;;;;3.97;1.00;;;18.80;99.90;;;;;;5128711;27;20050;-89
2022/07/28 06:59:59;;;;;;;4.60;1.13;;;19.00;99.90;;;;;;5098617;27;20113;-87
2022/07/28 07:02:25;;;;;;;4.25;0.95;;;19.10;99.90;;;;;;5096651;27;20034;-86
2022/07/28 07:04:51;;;;;;;5.28;0.80;;;18.90;99.90;;;;;;5112068;27;20052;-85
2022/07/28 07:07:17;;;;;;;4.43;1.00;;;19.00;99.90;;;;;;5088034;27;20346;-85
2022/07/28 07:09:46;;;;;;;2.10;0.98;;;19.00;99.90;;;;;;5054797;27;20089;-86
2022/07/28 07:12:12;;;;;;;5.05;1.10;;;18.90;99.90;;;;;;5094821;27;20560;-86
2022/07/28 07:14:39;;;;;;;5.22;1.00;;;19.10;99.90;;;;;;5053945;27;20087;-85
2022/07/28 07:17:05;;;;;;;4.40;0.70;;;19.10;99.90;;;;;;5093746;27;20050;-85
2022/07/28 07:19:32;;;;;;;3.70;0.82;;;19.00;99.90;;;;;;5088346;27;20078;-86
2022/07/28 07:21:58;;;;;;;5.00;1.20;;;19.00;99.90;;;;;;5074044;27;20050;-87
2022/07/28 07:24:24;;;;;;;4.10;1.23;;;18.90;99.90;;;;;;5079127;27;20095;-86
2022/07/28 07:26:50;;;;;;;4.55;1.10;;;18.90;99.90;;;;;;5103452;27;20035;-84
2022/07/28 07:29:17;;;;;;;6.60;2.17;;;18.90;99.90;;;;;;5075265;27;20501;-85
2022/07/28 07:31:43;;;;;;;4.90;1.10;;;18.80;99.90;;;;;;5078097;27;20095;-85
2022/07/28 07:34:09;;;;;;;2.90;0.70;;;19.00;99.90;;;;;;5050584;27;20061;-88
2022/07/28 07:36:35;;;;;;;2.60;0.60;;;19.30;99.90;;;;;;5051668;27;20070;-88
2022/07/28 07:39:02;;;;;;;4.28;0.75;;;19.10;99.90;;;;;;5073701;27;20155;-87
2022/07/28 07:41:28;;;;;;;2.20;0.70;;;19.00;99.90;;;;;;5056403;27;20074;-83
2022/07/28 07:43:54;;;;;;;8.02;4.55;;;19.30;99.90;;;;;;5086185;27;20209;-83
2022/07/28 07:46:20;;;;;;;4.50;1.00;;;19.90;99.90;;;;;;5056040;27;20109;-82
2022/07/28 07:48:46;;;;;;;3.88;1.85;;;19.80;99.90;;;;;;5123076;27;20084;-81
2022/07/28 07:51:13;;;;;;;4.75;1.50;;;19.90;99.90;;;;;;5056773;27;20050;-83
2022/07/28 07:53:40;;;;;;;7.90;5.38;;;20.10;99.90;;;;;;5033353;27;20509;-80
2022/07/28 07:56:06;;;;;;;5.32;4.30;;;20.50;99.90;;;;;;5070243;27;20043;-83
2022/07/28 07:58:33;;;;;;;4.78;1.45;;;20.80;99.90;;;;;;5088373;27;20053;-83
2022/07/28 08:01:00;;;;;;;10.88;8.40;;;20.80;99.60;;;;;;5070631;27;20043;-82
2022/07/28 08:03:26;;;;;;;2.78;0.98;;;20.90;98.60;;;;;;5088492;27;20491;-81
2022/07/28 08:05:55;;;;;;;4.15;0.85;;;20.60;97.90;;;;;;5072625;27;20043;-82
2022/07/28 08:08:22;;;;;;;7.75;3.58;;;20.90;97.10;;;;;;5060667;27;20045;-83
2022/07/28 08:10:49;;;;;;;5.68;4.10;;;21.10;96.90;;;;;;5073951;27;20070;-82
2022/07/28 08:13:19;;;;;;;3.58;2.40;;;21.40;97.10;;;;;;5106699;27;20482;-82
2022/07/28 08:15:45;;;;;;;15.27;13.27;;;21.40;95.80;;;;;;5094726;27;20043;-82
2022/07/28 08:18:12;;;;;;;6.30;2.15;;;21.60;96.40;;;;;;5073656;27;20038;-85
2022/07/28 08:20:40;;;;;;;5.05;0.95;;;21.30;94.70;;;;;;5072793;27;20517;-84
2022/07/28 08:23:07;;;;;;;6.32;4.07;;;21.80;94.90;;;;;;5070031;27;20060;-83
2022/07/28 08:25:37;;;;;;;2.42;0.75;;;21.80;92.10;;;;;;5072582;27;20055;-82
2022/07/28 08:28:03;;;;;;;3.03;0.82;;;21.90;89.30;;;;;;5083321;27;20043;-86
2022/07/28 08:30:29;;;;;;;3.28;0.80;;;22.00;85.50;;;;;;5081882;27;20431;-82
2022/07/28 08:32:56;;;;;;;11.35;10.10;;;22.10;85.40;;;;;;5074229;27;20039;-83
2022/07/28 08:35:22;;;;;;;7.50;6.20;;;22.10;82.00;;;;;;5059046;27;20039;-84
2022/07/28 08:37:48;;;;;;;3.53;1.35;;;22.30;77.50;;;;;;5072138;27;20050;-86
2022/07/28 08:40:15;;;;;;;1.98;0.55;;;22.20;77.00;;;;;;5079370;27;20823;-84
2022/07/28 08:42:51;;;;;;;3.05;0.73;;;22.50;78.50;;;;;;5086487;27;20072;-86
2022/07/28 08:45:19;;;;;;;2.17;0.70;;;22.40;75.60;;;;;;5085586;27;20042;-84
2022/07/28 08:47:48;;;;;;;2.17;0.70;;;23.10;75.10;;;;;;5090451;27;20071;-82
2022/07/28 08:50:23;;;;;;;5.85;0.80;;;22.30;72.80;;;;;;5064505;27;20100;-84
2022/07/28 08:52:51;;;;;;;6.25;5.47;;;21.90;73.50;;;;;;5083166;27;20114;-83
2022/07/28 08:55:28;;;;;;;2.42;0.68;;;21.80;73.90;;;;;;5111610;27;20129;-86
2022/07/28 08:57:56;;;;;;;9.20;6.10;;;21.60;72.60;;;;;;5100184;27;20047;-84
2022/07/28 09:00:23;;;;;;;7.20;2.83;;;21.50;73.10;;;;;;5086250;27;20060;-85
2022/07/28 09:02:50;;;;;;;3.08;1.17;;;21.60;73.40;;;;;;5086125;27;20035;-85
2022/07/28 09:05:20;;;;;;;3.00;1.10;;;21.90;72.90;;;;;;5083155;27;20119;-85
2022/07/28 09:07:51;;;;;;;8.27;4.25;;;21.40;73.60;;;;;;5069190;27;20042;-84
2022/07/28 09:10:18;;;;;;;15.05;3.40;;;21.30;75.90;;;;;;5083303;27;20106;-82
2022/07/28 09:12:45;;;;;;;12.45;11.13;;;21.40;76.80;;;;;;5068331;27;20121;-81
2022/07/28 09:15:12;;;;;;;6.95;4.80;;;21.50;77.30;;;;;;5085364;27;20394;-85
2022/07/28 09:17:40;;;;;;;3.67;1.70;;;21.30;78.50;;;;;;5068441;27;20117;-85
2022/07/28 09:20:07;;;;;;;3.03;0.90;;;21.60;79.10;;;;;;5062471;27;20062;-80
2022/07/28 09:22:34;;;;;;;6.70;1.73;;;21.60;76.70;;;;;;5096542;27;20046;-81
2022/07/28 09:25:02;;;;;;;24.05;2.05;;;21.50;77.40;;;;;;5070748;27;20038;-80
2022/07/28 09:27:50;;;;;;;26.10;4.53;;;21.30;78.30;;;;;;5081199;27;20375;-85
2022/07/28 09:30:27;;;;;;;38.90;4.40;;;21.10;88.30;;;;;;5088073;27;20051;-83
2022/07/28 09:33:20;;;;;;;7.90;1.52;;;21.00;92.00;;;;;;5084587;27;20238;-81
2022/07/28 09:35:52;;;;;;;5.63;1.73;;;20.90;95.00;;;;;;5108650;27;20042;-83
2022/07/28 09:38:21;;;;;;;8.63;5.15;;;21.20;96.40;;;;;;5073360;27;20046;-81
2022/07/28 09:41:06;;;;;;;2.97;1.85;;;21.30;96.00;;;;;;5085169;27;20047;-82
2022/07/28 09:43:39;;;;;;;7.55;3.35;;;21.60;95.50;;;;;;5068444;27;20046;-81
2022/07/28 09:46:16;;;;;;;6.22;3.55;;;21.90;96.00;;;;;;5074580;27;20447;-82
2022/07/28 09:48:49;;;;;;;6.05;1.30;;;22.30;95.60;;;;;;5064367;27;20043;-82
2022/07/28 09:51:18;;;;;;;3.88;1.58;;;22.80;94.40;;;;;;5106033;27;20043;-83
2022/07/28 09:53:45;;;;;;;4.47;1.10;;;22.60;94.00;;;;;;5070155;27;20522;-82
2022/07/28 09:56:12;;;;;;;4.75;1.90;;;23.10;92.80;;;;;;5090179;27;20208;-83
2022/07/28 09:58:39;;;;;;;2.00;0.80;;;22.80;92.10;;;;;;5068426;27;20094;-82
2022/07/28 10:01:12;;;;;;;3.60;1.00;;;22.30;89.50;;;;;;5104142;27;20541;-83
2022/07/28 10:03:41;;;;;;;5.20;1.98;;;22.10;86.70;;;;;;5106345;27;20038;-82
2022/07/28 10:06:15;;;;;;;7.55;5.18;;;22.00;90.70;;;;;;5090116;27;20067;-83
2022/07/28 10:08:47;;;;;;;6.45;4.40;;;22.30;92.30;;;;;;5082637;27;20490;-83
2022/07/28 10:11:21;;;;;;;2.20;0.68;;;22.80;91.90;;;;;;5085923;27;20061;-87
2022/07/28 10:13:56;;;;;;;57.67;51.72;;;23.00;88.20;;;;;;5083646;27;20047;-87
2022/07/28 10:16:25;;;;;;;33.30;29.83;;;23.50;84.90;;;;;;5080099;27;20050;-92
2022/07/28 10:18:52;;;;;;;14.77;13.27;;;24.00;84.00;;;;;;5086246;27;20146;-85
2022/07/28 10:21:22;;;;;;;3.97;2.13;;;24.40;76.20;;;;;;5080167;27;20503;-85
2022/07/28 10:23:57;;;;;;;15.43;13.95;;;24.20;75.00;;;;;;5087478;27;20045;-86
2022/07/28 10:26:31;;;;;;;4.40;1.75;;;24.00;73.40;;;;;;5081834;28;20046;-84
2022/07/28 10:29:01;;;;;;;5.57;2.10;;;23.50;71.60;;;;;;5074553;27;20066;-83
2022/07/28 10:31:42;;;;;;;4.20;1.20;;;23.50;74.10;;;;;;5084587;27;20057;-88
2022/07/28 10:34:34;;;;;;;6.25;2.90;;;24.10;72.60;;;;;;5140475;27;20029;-83
2022/07/28 10:37:06;;;;;;;2.75;0.98;;;24.50;70.70;;;;;;5081552;27;20047;-84
2022/07/28 10:39:41;;;;;;;4.97;1.45;;;24.80;67.90;;;;;;5088661;27;20027;-82
2022/07/28 10:42:12;;;;;;;7.13;4.90;;;25.10;65.40;;;;;;5074966;27;20126;-85
2022/07/28 10:44:40;;;;;;;2.40;0.90;;;25.10;65.60;;;;;;5107261;27;20436;-85
2022/07/28 10:47:08;;;;;;;2.35;0.77;;;25.20;62.00;;;;;;5097034;27;20119;-84
2022/07/28 10:49:36;;;;;;;20.23;18.17;;;24.90;60.50;;;;;;5087442;28;20043;-84
2022/07/28 10:52:05;;;;;;;3.53;0.93;;;25.30;63.00;;;;;;5078232;27;20059;-84
2022/07/28 10:54:37;;;;;;;1.98;0.90;;;25.00;62.40;;;;;;5073871;28;20156;-86
2022/07/28 10:57:06;;;;;;;1.98;0.60;;;24.50;61.70;;;;;;5080075;28;20081;-86
2022/07/28 10:59:51;;;;;;;3.72;0.80;;;24.30;61.30;;;;;;5067933;28;20040;-86
2022/07/28 11:02:55;;;;;;;6.03;4.00;;;23.90;62.00;;;;;;5070866;28;20047;-87
2022/07/28 11:05:29;;;;;;;6.70;3.85;;;24.60;63.70;;;;;;5076472;28;20043;-87
2022/07/28 11:07:59;;;;;;;7.75;5.95;;;25.30;61.30;;;;;;5067255;28;20125;-85
2022/07/28 11:10:41;;;;;;;3.33;1.10;;;25.30;60.80;;;;;;5096929;28;20048;-85
2022/07/28 11:13:07;;;;;;;1.83;0.73;;;25.40;56.90;;;;;;5115758;28;20098;-85
2022/07/28 11:15:35;;;;;;;4.20;0.75;;;25.20;57.30;;;;;;5085738;28;20134;-84
2022/07/28 11:18:07;;;;;;;2.70;0.70;;;25.50;57.40;;;;;;5067263;27;20047;-83
2022/07/28 11:20:51;;;;;;;5.72;4.00;;;24.90;57.90;;;;;;5082107;27;20583;-85
2022/07/28 11:23:37;;;;;;;4.82;2.65;;;24.50;59.40;;;;;;5080669;27;20039;-84
2022/07/28 11:26:22;;;;;;;10.77;9.05;;;24.20;61.00;;;;;;5089441;27;20035;-85
2022/07/28 11:29:02;;;;;;;6.35;2.83;;;24.60;60.60;;;;;;5089842;27;20049;-85
2022/07/28 11:31:45;;;;;;;6.07;4.18;;;24.80;60.80;;;;;;5108578;27;20042;-85
2022/07/28 11:34:15;;;;;;;5.13;3.47;;;24.80;60.90;;;;;;5083242;27;20790;-84
2022/07/28 11:37:05;;;;;;;5.20;2.13;;;25.40;61.70;;;;;;5067246;28;20099;-85
2022/07/28 11:39:33;;;;;;;2.80;1.23;;;25.50;57.50;;;;;;5066917;27;20038;-83
2022/07/28 11:42:26;;;;;;;7.55;3.83;;;25.60;58.70;;;;;;5075294;27;20060;-85
2022/07/28 11:44:54;;;;;;;3.45;1.40;;;26.20;60.00;;;;;;5073763;27;20039;-85
2022/07/28 11:47:21;;;;;;;2.58;0.75;;;26.60;59.50;;;;;;5104346;27;20121;-86
2022/07/28 11:50:11;;;;;;;2.20;1.00;;;27.10;57.20;;;;;;5093464;27;20119;-85
2022/07/28 11:52:38;;;;;;;6.57;2.47;;;27.00;57.40;;;;;;5090266;27;20505;-85
2022/07/28 11:55:05;;;;;;;4.93;1.75;;;27.60;57.70;;;;;;5096041;27;20073;-85
2022/07/28 11:57:40;;;;;;;4.47;2.08;;;27.40;57.80;;;;;;5079971;27;20054;-86
2022/07/28 12:00:07;;;;;;;3.58;1.83;;;27.60;55.20;;;;;;5100715;27;20586;-85
2022/07/28 12:02:34;;;;;;;5.82;3.35;;;27.20;54.20;;;;;;5099490;27;20042;-87
2022/07/28 12:05:08;;;;;;;3.08;1.25;;;27.40;54.60;;;;;;5072022;27;20035;-85
2022/07/28 12:07:46;;;;;;;4.30;2.35;;;27.10;53.50;;;;;;5126959;27;20046;-86
2022/07/28 12:10:25;;;;;;;1.55;0.70;;;26.40;54.00;;;;;;5104465;27;20070;-85
2022/07/28 12:12:53;;;;;;;3.53;1.30;;;25.40;53.40;;;;;;5078568;27;20045;-85
2022/07/28 12:15:20;;;;;;;2.53;1.00;;;24.90;54.10;;;;;;5091996;27;20058;-85
2022/07/28 12:17:50;;;;;;;6.97;2.00;;;25.10;54.60;;;;;;5104274;27;20039;-87
2022/07/28 12:20:17;;;;;;;2.72;0.68;;;25.00;55.50;;;;;;5078524;27;20146;-86
2022/07/28 12:22:58;;;;;;;4.25;1.20;;;24.50;53.40;;;;;;5052540;27;20043;-87
2022/07/28 12:25:25;;;;;;;3.95;1.00;;;24.40;55.10;;;;;;5083221;27;20247;-86
2022/07/28 12:27:52;;;;;;;4.18;1.95;;;25.20;54.50;;;;;;5086090;27;20069;-86
2022/07/28 12:30:26;;;;;;;4.03;1.95;;;25.80;55.00;;;;;;5073598;27;20134;-86
2022/07/28 12:32:53;;;;;;;3.15;1.42;;;25.60;54.50;;;;;;5103240;27;20078;-87
2022/07/28 12:35:21;;;;;;;1.83;0.60;;;24.90;54.10;;;;;;5072918;27;20073;-86
2022/07/28 12:37:48;;;;;;;2.25;0.57;;;24.70;54.30;;;;;;5093898;27;20050;-85
2022/07/28 12:40:16;;;;;;;2.92;1.00;;;25.20;53.20;;;;;;5092815;27;20523;-86
2022/07/28 12:42:44;;;;;;;4.35;1.13;;;25.90;53.60;;;;;;5077273;27;20073;-87
2022/07/28 12:45:11;;;;;;;3.63;0.93;;;25.80;53.20;;;;;;5044973;27;20066;-87
2022/07/28 12:47:39;;;;;;;2.17;0.63;;;25.20;53.00;;;;;;5088581;27;20050;-86
2022/07/28 12:50:09;;;;;;;4.47;0.80;;;24.60;53.70;;;;;;5035375;27;20043;-86
2022/07/28 12:52:36;;;;;;;4.00;1.15;;;24.20;55.10;;;;;;5074998;27;20095;-87
2022/07/28 12:55:19;;;;;;;4.18;1.42;;;24.00;55.80;;;;;;5076969;27;20093;-85
2022/07/28 12:57:50;;;;;;;3.83;1.00;;;24.10;56.50;;;;;;5085987;27;20050;-86
2022/07/28 13:00:19;;;;;;;4.65;1.48;;;24.10;56.30;;;;;;5098005;27;20417;-84
2022/07/28 13:02:47;;;;;;;3.67;1.00;;;25.00;55.80;;;;;;5126139;27;20061;-84